Time;durP1;ratioP1;P1;durP2;ratioP2;P2;SDS_P1;SDS_P2;PMS_P1;PMS_P2;Temp;Humidity;BMP_temperature;BMP_pressure;BME280_temperature;BME280_humidity;BME280_pressure;Samples;Min_cycle;Max_cycle;Signal;HPM_P1;HPM_P2
2022/10/29 00:00:50;;;;;;;;;;;15.30;99.90;;;;;;5061818;28;19932;-81
2022/10/29 00:03:17;;;;;;;;;;;15.20;99.90;;;;;;5055812;28;19935;-81
2022/10/29 00:05:44;;;;;;;;;;;15.20;99.90;;;;;;5055832;28;19928;-82
2022/10/29 00:08:11;;;;;;;;;;;15.30;99.90;;;;;;5056690;28;19955;-82
2022/10/29 00:10:38;;;;;;;;;;;15.30;99.90;;;;;;5055644;28;19925;-82
2022/10/29 00:13:05;;;;;;;;;;;15.30;99.90;;;;;;5051625;28;19925;-82
2022/10/29 00:15:32;;;;;;;;;;;15.30;99.90;;;;;;5056280;28;19932;-82
2022/10/29 00:18:00;;;;;;;;;;;15.30;99.90;;;;;;5057302;28;19929;-82
2022/10/29 00:20:27;;;;;;;;;;;15.20;99.90;;;;;;5056198;28;19928;-81
2022/10/29 00:22:54;;;;;;;;;;;15.20;99.90;;;;;;5056134;28;19929;-81
2022/10/29 00:25:21;;;;;;;;;;;15.30;99.90;;;;;;5058799;28;19929;-81
2022/10/29 00:27:48;;;;;;;;;;;14.10;99.90;;;;;;5059604;28;19974;-82
2022/10/29 00:30:15;;;;;;;;;;;15.30;99.90;;;;;;5056611;28;19963;-81
2022/10/29 00:32:42;;;;;;;;;;;15.30;99.90;;;;;;5055457;28;20358;-82
2022/10/29 00:35:10;;;;;;;;;;;15.30;99.90;;;;;;5056553;28;19932;-80
2022/10/29 00:37:37;;;;;;;;;;;15.30;99.90;;;;;;5057436;28;19930;-81
2022/10/29 00:40:04;;;;;;;;;;;15.40;99.90;;;;;;5057905;28;19925;-82
2022/10/29 00:42:31;;;;;;;;;;;15.40;99.90;;;;;;5056675;28;19928;-82
2022/10/29 00:44:58;;;;;;;;;;;15.40;99.90;;;;;;5049043;28;19951;-80
2022/10/29 00:47:26;;;;;;;;;;;15.40;99.90;;;;;;5052623;28;19937;-80
2022/10/29 00:49:54;;;;;;;;;;;15.40;99.90;;;;;;5059535;28;20007;-79
2022/10/29 00:52:24;;;;;;;;;;;15.40;99.90;;;;;;5044206;28;19932;-80
2022/10/29 00:54:51;;;;;;;;;;;15.40;99.90;;;;;;5050922;28;19924;-79
2022/10/29 00:57:21;;;;;;;;;;;15.50;99.90;;;;;;5048939;28;19975;-80
2022/10/29 00:59:48;;;;;;;;;;;15.50;99.90;;;;;;5045855;28;19924;-80
2022/10/29 01:02:16;;;;;;;;;;;15.50;99.90;;;;;;5050243;28;20067;-80
2022/10/29 01:04:43;;;;;;;;;;;15.50;99.90;;;;;;5055675;28;19951;-80
2022/10/29 01:07:10;;;;;;;;;;;15.50;99.90;;;;;;5051178;28;19933;-81
2022/10/29 01:09:39;;;;;;;;;;;15.40;99.90;;;;;;5070673;28;19944;-80
2022/10/29 01:12:18;;;;;;;;;;;15.40;99.90;;;;;;5054388;28;20324;-82
2022/10/29 01:14:50;;;;;;;;;;;15.30;99.90;;;;;;5053535;28;20319;-80
2022/10/29 01:17:24;;;;;;;;;;;15.30;99.90;;;;;;5053611;28;20036;-80
2022/10/29 01:20:16;;;;;;;;;;;15.30;99.90;;;;;;5045601;28;19925;-80
2022/10/29 01:22:46;;;;;;;;;;;15.20;99.90;;;;;;5052007;28;19932;-78
2022/10/29 01:25:26;;;;;;;;;;;15.20;99.90;;;;;;5057815;28;19966;-82
2022/10/29 01:28:01;;;;;;;;;;;15.10;99.90;;;;;;5054398;28;19964;-83
2022/10/29 01:30:46;;;;;;;;;;;15.10;99.90;;;;;;5058120;28;20366;-82
2022/10/29 01:33:18;;;;;;;;;;;15.00;99.90;;;;;;5008364;28;19972;-81
2022/10/29 01:35:51;;;;;;;;;;;15.00;99.90;;;;;;5060076;28;19935;-82
2022/10/29 01:38:22;;;;;;;;;;;15.00;99.90;;;;;;5058352;28;19929;-82
2022/10/29 01:40:53;;;;;;;;;;;15.00;99.90;;;;;;5058929;28;19984;-81
2022/10/29 01:43:22;;;;;;;;;;;15.00;99.90;;;;;;5056311;28;19929;-82
2022/10/29 01:45:51;;;;;;;;;;;14.90;99.90;;;;;;5058338;28;19925;-81
2022/10/29 01:48:22;;;;;;;;;;;14.90;99.90;;;;;;5058272;28;19928;-81
2022/10/29 01:50:51;;;;;;;;;;;14.90;99.90;;;;;;5059029;28;19956;-81
2022/10/29 01:53:21;;;;;;;;;;;14.80;99.90;;;;;;5054945;28;19982;-81
2022/10/29 01:55:48;;;;;;;;;;;14.80;99.90;;;;;;5056539;28;19948;-81
2022/10/29 01:58:15;;;;;;;;;;;14.80;99.90;;;;;;5057728;28;19924;-82
2022/10/29 02:00:48;;;;;;;;;;;14.70;99.90;;;;;;5077097;28;19928;-82
2022/10/29 02:03:32;;;;;;;;;;;14.70;99.90;;;;;;5054701;28;19936;-80
2022/10/29 02:06:01;;;;;;;;;;;14.70;99.90;;;;;;5051162;28;19929;-80
2022/10/29 02:08:31;;;;;;;;;;;14.60;99.90;;;;;;5054162;28;20348;-80
2022/10/29 02:11:02;;;;;;;;;;;14.60;99.90;;;;;;5056617;28;19989;-82
2022/10/29 02:13:31;;;;;;;;;;;14.60;99.90;;;;;;5056771;28;19929;-82
2022/10/29 02:15:59;;;;;;;;;;;14.60;99.90;;;;;;5055258;28;19925;-81
2022/10/29 02:18:27;;;;;;;;;;;14.50;99.90;;;;;;5055158;28;19933;-81
2022/10/29 02:20:54;;;;;;;;;;;14.50;99.90;;;;;;5067050;28;19935;-80
2022/10/29 02:23:21;;;;;;;;;;;14.50;99.90;;;;;;5056638;28;19929;-81
2022/10/29 02:25:48;;;;;;;;;;;14.40;99.90;;;;;;5056692;28;19928;-81
2022/10/29 02:28:15;;;;;;;;;;;14.40;99.90;;;;;;5054379;28;20102;-81
2022/10/29 02:30:42;;;;;;;;;;;14.40;99.90;;;;;;5060089;28;19924;-80
2022/10/29 02:33:09;;;;;;;;;;;14.40;99.90;;;;;;5053627;28;20577;-81
2022/10/29 02:35:41;;;;;;;;;;;14.40;99.90;;;;;;5055192;28;20480;-80
2022/10/29 02:38:08;;;;;;;;;;;14.30;99.90;;;;;;5051260;28;19935;-81
2022/10/29 02:40:35;;;;;;;;;;;14.30;99.90;;;;;;5056580;28;20047;-81
2022/10/29 02:43:03;;;;;;;;;;;14.30;99.90;;;;;;5053704;28;20380;-80
2022/10/29 02:45:30;;;;;;;;;;;14.20;99.90;;;;;;5055368;28;19950;-79
2022/10/29 02:47:56;;;;;;;;;;;14.20;99.90;;;;;;5052911;28;20414;-82
2022/10/29 02:50:23;;;;;;;;;;;14.20;99.90;;;;;;5055771;28;19932;-83
2022/10/29 02:52:52;;;;;;;;;;;14.10;99.90;;;;;;5056219;28;19931;-82
2022/10/29 02:55:18;;;;;;;;;;;14.10;99.90;;;;;;5055542;28;19956;-81
2022/10/29 02:57:46;;;;;;;;;;;12.80;99.90;;;;;;5056375;28;19925;-81
2022/10/29 03:00:13;;;;;;;;;;;14.10;99.90;;;;;;5069373;28;19947;-82
2022/10/29 03:02:40;;;;;;;;;;;14.10;99.90;;;;;;5062780;28;19973;-83
2022/10/29 03:05:07;;;;;;;;;;;14.10;99.90;;;;;;5061670;28;19956;-83
2022/10/29 03:07:35;;;;;;;;;;;14.10;99.90;;;;;;5060714;28;19940;-81
2022/10/29 03:10:03;;;;;;;;;;;14.10;99.90;;;;;;5060476;28;19929;-81
2022/10/29 03:12:31;;;;;;;;;;;14.10;99.90;;;;;;5061268;28;19939;-82
2022/10/29 03:14:58;;;;;;;;;;;14.10;99.90;;;;;;5059069;28;19929;-81
2022/10/29 03:17:26;;;;;;;;;;;14.10;99.90;;;;;;5058526;28;19932;-82
2022/10/29 03:19:52;;;;;;;;;;;14.10;99.90;;;;;;5059297;28;19925;-82
2022/10/29 03:22:19;;;;;;;;;;;14.10;99.90;;;;;;5060478;28;20284;-82
2022/10/29 03:24:46;;;;;;;;;;;14.10;99.90;;;;;;5061869;28;19924;-84
2022/10/29 03:27:15;;;;;;;;;;;14.10;99.90;;;;;;5061315;28;20024;-82
2022/10/29 03:29:42;;;;;;;;;;;14.10;99.90;;;;;;5060120;28;19975;-81
2022/10/29 03:32:09;;;;;;;;;;;14.10;99.90;;;;;;5063967;28;19925;-80
2022/10/29 03:34:36;;;;;;;;;;;14.10;99.90;;;;;;5059505;28;19946;-80
2022/10/29 03:37:03;;;;;;;;;;;13.40;99.90;;;;;;5057874;28;19925;-80
2022/10/29 03:39:30;;;;;;;;;;;14.10;99.90;;;;;;5057200;28;19928;-80
2022/10/29 03:41:57;;;;;;;;;;;14.10;99.90;;;;;;5056708;28;19928;-80
2022/10/29 03:44:25;;;;;;;;;;;14.10;99.90;;;;;;5059202;28;19932;-80
2022/10/29 03:46:52;;;;;;;;;;;14.20;99.90;;;;;;5059348;28;20000;-81
2022/10/29 03:49:20;;;;;;;;;;;14.20;99.90;;;;;;5055040;28;19932;-81
2022/10/29 03:51:47;;;;;;;;;;;14.20;99.90;;;;;;5057166;28;20532;-80
2022/10/29 03:54:14;;;;;;;;;;;14.20;99.90;;;;;;5058022;28;19932;-81
2022/10/29 03:56:41;;;;;;;;;;;14.20;99.90;;;;;;5048721;28;19982;-81
2022/10/29 03:59:08;;;;;;;;;;;14.20;99.90;;;;;;5060604;28;19958;-80
2022/10/29 04:01:36;;;;;;;;;;;14.20;99.90;;;;;;5071154;28;19925;-81
2022/10/29 04:04:03;;;;;;;;;;;14.20;99.90;;;;;;5055585;28;19986;-80
2022/10/29 04:06:30;;;;;;;;;;;14.20;99.90;;;;;;5062484;28;19948;-81
2022/10/29 04:08:57;;;;;;;;;;;14.20;99.90;;;;;;5056529;28;19940;-80
2022/10/29 04:11:24;;;;;;;;;;;14.20;99.90;;;;;;5056589;28;20278;-80
2022/10/29 04:13:52;;;;;;;;;;;14.20;99.90;;;;;;5058670;28;20411;-81
2022/10/29 04:16:18;;;;;;;;;;;14.20;99.90;;;;;;5056739;28;19939;-81
2022/10/29 04:18:47;;;;;;;;;;;14.20;99.90;;;;;;5057518;28;19933;-81
2022/10/29 04:21:14;;;;;;;;;;;14.20;99.90;;;;;;5057636;28;19928;-81
2022/10/29 04:23:41;;;;;;;;;;;14.20;99.90;;;;;;5057219;28;20016;-81
2022/10/29 04:26:09;;;;;;;;;;;14.20;99.90;;;;;;5059123;28;19929;-80
2022/10/29 04:28:35;;;;;;;;;;;14.20;99.90;;;;;;5061260;28;20260;-82
2022/10/29 04:31:04;;;;;;;;;;;14.30;99.90;;;;;;5059145;28;19925;-81
2022/10/29 04:33:32;;;;;;;;;;;14.30;99.90;;;;;;5053274;28;19929;-81
2022/10/29 04:36:00;;;;;;;;;;;14.30;99.90;;;;;;5054815;28;19947;-82
2022/10/29 04:38:27;;;;;;;;;;;14.40;99.90;;;;;;5058770;28;20358;-83
2022/10/29 04:40:57;;;;;;;;;;;14.40;99.90;;;;;;5058393;28;19929;-82
2022/10/29 04:43:24;;;;;;;;;;;14.40;99.90;;;;;;5057508;28;19928;-81
2022/10/29 04:45:51;;;;;;;;;;;14.40;99.90;;;;;;5061619;28;19924;-81
2022/10/29 04:48:19;;;;;;;;;;;14.40;99.90;;;;;;5056847;28;19986;-80
2022/10/29 04:50:48;;;;;;;;;;;14.40;99.90;;;;;;5056236;28;20301;-82
2022/10/29 04:53:16;;;;;;;;;;;14.40;99.90;;;;;;5054922;28;20348;-81
2022/10/29 04:55:43;;;;;;;;;;;14.40;99.90;;;;;;5059111;28;19959;-81
2022/10/29 04:58:12;;;;;;;;;;;14.40;99.90;;;;;;5056935;28;19925;-80
2022/10/29 05:00:39;;;;;;;;;;;14.50;99.90;;;;;;5058360;28;19932;-82
2022/10/29 05:03:06;;;;;;;;;;;14.50;99.90;;;;;;5056131;28;19936;-82
2022/10/29 05:05:33;;;;;;;;;;;14.50;99.90;;;;;;5056707;28;19933;-80
2022/10/29 05:08:01;;;;;;;;;;;13.60;99.90;;;;;;5056666;28;19928;-81
2022/10/29 05:10:30;;;;;;;;;;;14.60;99.90;;;;;;5074634;28;20256;-82
2022/10/29 05:12:58;;;;;;;;;;;14.60;99.90;;;;;;5059110;28;19970;-82
2022/10/29 05:15:28;;;;;;;;;;;14.60;99.90;;;;;;5059043;28;19929;-81
2022/10/29 05:17:55;;;;;;;;;;;14.60;99.90;;;;;;5058906;28;20024;-82
2022/10/29 05:20:24;;;;;;;;;;;14.60;99.90;;;;;;5056421;28;20046;-82
2022/10/29 05:22:57;;;;;;;;;;;14.60;99.90;;;;;;5056900;28;20369;-82
2022/10/29 05:25:24;;;;;;;;;;;14.50;99.90;;;;;;5057009;28;19925;-80
2022/10/29 05:27:58;;;;;;;;;;;14.50;99.90;;;;;;5056940;28;19936;-81
2022/10/29 05:30:25;;;;;;;;;;;14.50;99.90;;;;;;5054810;28;19967;-80
2022/10/29 05:32:52;;;;;;;;;;;14.50;99.90;;;;;;5054498;28;19928;-80
2022/10/29 05:35:19;;;;;;;;;;;14.40;99.90;;;;;;5055657;28;19925;-80
2022/10/29 05:37:50;;;;;;;;;;;14.40;99.90;;;;;;5070388;28;19925;-81
2022/10/29 05:40:17;;;;;;;;;;;14.40;99.90;;;;;;5056236;28;20403;-81
2022/10/29 05:42:45;;;;;;;;;;;14.30;99.90;;;;;;5054532;28;20338;-81
2022/10/29 05:45:14;;;;;;;;;;;14.30;99.90;;;;;;5053634;28;19948;-81
2022/10/29 05:47:41;;;;;;;;;;;14.30;99.90;;;;;;5068333;28;19936;-80
2022/10/29 05:50:09;;;;;;;;;;;14.30;99.90;;;;;;5054740;28;19929;-81
2022/10/29 05:52:36;;;;;;;;;;;15.00;99.90;;;;;;5055241;28;20403;-81
2022/10/29 05:55:03;;;;;;;;;;;14.40;99.90;;;;;;5055228;28;20004;-81
2022/10/29 05:57:30;;;;;;;;;;;14.40;99.90;;;;;;5055505;28;20182;-81
2022/10/29 05:59:57;;;;;;;;;;;14.40;99.90;;;;;;5055235;28;19974;-80
2022/10/29 06:02:25;;;;;;;;;;;14.50;99.90;;;;;;5054654;28;19959;-80
2022/10/29 06:04:52;;;;;;;;;;;14.50;99.90;;;;;;5056803;28;19925;-82
2022/10/29 06:07:19;;;;;;;;;;;14.50;99.90;;;;;;5058209;28;19925;-81
2022/10/29 06:09:46;;;;;;;;;;;14.60;99.90;;;;;;5056133;28;19979;-81
2022/10/29 06:12:13;;;;;;;;;;;14.60;99.90;;;;;;5056799;28;19929;-81
2022/10/29 06:14:40;;;;;;;;;;;14.60;99.90;;;;;;5057037;28;20577;-80
2022/10/29 06:17:07;;;;;;;;;;;14.70;99.90;;;;;;5057734;28;19996;-83
2022/10/29 06:19:35;;;;;;;;;;;14.70;99.90;;;;;;5058781;28;19988;-84
2022/10/29 06:22:02;;;;;;;;;;;14.70;99.90;;;;;;5058813;28;20299;-82
2022/10/29 06:24:30;;;;;;;;;;;14.80;99.90;;;;;;5061709;28;19935;-82
2022/10/29 06:26:56;;;;;;;;;;;14.80;99.90;;;;;;5063478;28;19928;-82
2022/10/29 06:29:23;;;;;;;;;;;14.90;99.90;;;;;;5059402;28;20065;-82
2022/10/29 06:31:51;;;;;;;;;;;14.90;99.90;;;;;;5057789;28;19931;-84
2022/10/29 06:34:18;;;;;;;;;;;14.90;99.90;;;;;;5058112;28;19932;-83
2022/10/29 06:36:47;;;;;;;;;;;15.00;99.90;;;;;;5057198;28;19959;-84
2022/10/29 06:39:14;;;;;;;;;;;15.00;99.90;;;;;;5058991;28;19957;-83
2022/10/29 06:41:42;;;;;;;;;;;15.10;99.90;;;;;;5048891;28;20413;-84
2022/10/29 06:44:09;;;;;;;;;;;15.10;99.90;;;;;;5053953;28;19972;-81
2022/10/29 06:46:37;;;;;;;;;;;15.20;99.90;;;;;;5056117;28;19929;-82
2022/10/29 06:49:04;;;;;;;;;;;15.10;99.90;;;;;;5055094;28;19976;-81
2022/10/29 06:51:31;;;;;;;;;;;15.20;99.90;;;;;;5053414;28;19944;-83
2022/10/29 06:54:00;;;;;;;;;;;15.30;99.90;;;;;;5057650;28;20272;-81
2022/10/29 06:56:27;;;;;;;;;;;15.30;99.90;;;;;;5059002;28;19979;-80
2022/10/29 06:58:54;;;;;;;;;;;15.30;99.90;;;;;;5059028;28;20732;-81
2022/10/29 07:01:22;;;;;;;;;;;15.40;99.90;;;;;;5055497;28;19944;-81
2022/10/29 07:03:49;;;;;;;;;;;15.40;99.90;;;;;;5047739;28;20024;-80
2022/10/29 07:06:16;;;;;;;;;;;15.50;99.90;;;;;;5035822;28;19933;-80
2022/10/29 07:08:44;;;;;;;;;;;15.50;99.90;;;;;;5041230;28;19933;-80
2022/10/29 07:11:12;;;;;;;;;;;15.50;99.90;;;;;;5052815;28;19935;-80
2022/10/29 07:13:39;;;;;;;;;;;15.60;99.90;;;;;;5055458;28;20455;-81
2022/10/29 07:16:07;;;;;;;;;;;15.70;99.90;;;;;;5052470;28;19978;-82
2022/10/29 07:18:34;;;;;;;;;;;15.70;99.90;;;;;;5056594;28;19928;-82
2022/10/29 07:21:03;;;;;;;;;;;15.80;99.90;;;;;;5055445;28;19928;-82
2022/10/29 07:23:29;;;;;;;;;;;15.90;99.90;;;;;;5056477;28;20035;-82
2022/10/29 07:25:58;;;;;;;;;;;16.00;99.90;;;;;;5049943;28;19932;-77
2022/10/29 07:28:26;;;;;;;;;;;16.20;99.90;;;;;;5041782;28;19991;-80
2022/10/29 07:30:58;;;;;;;;;;;16.30;99.90;;;;;;5041679;28;19932;-80
2022/10/29 07:33:43;;;;;;;;;;;16.50;99.90;;;;;;5048456;28;19932;-79
2022/10/29 07:36:11;;;;;;;;;;;16.70;99.90;;;;;;5051884;28;19936;-79
2022/10/29 07:38:38;;;;;;;;;;;17.20;99.90;;;;;;5051268;28;19928;-89
2022/10/29 07:41:06;;;;;;;;;;;17.60;99.90;;;;;;5044717;28;19929;-78
2022/10/29 07:43:37;;;;;;;;;;;17.90;99.90;;;;;;5056870;28;19925;-80
2022/10/29 07:46:04;;;;;;;;;;;18.10;99.90;;;;;;5047595;28;20806;-78
2022/10/29 07:48:30;;;;;;;;;;;18.20;99.90;;;;;;5055680;28;19978;-78
2022/10/29 07:50:58;;;;;;;;;;;18.20;99.90;;;;;;5037960;28;19982;-81
2022/10/29 07:53:25;;;;;;;;;;;18.30;99.90;;;;;;5043588;28;19928;-80
2022/10/29 07:55:53;;;;;;;;;;;18.30;99.90;;;;;;5052468;28;19929;-79
2022/10/29 07:58:20;;;;;;;;;;;18.30;99.90;;;;;;5043269;28;19925;-80
2022/10/29 08:00:49;;;;;;;;;;;18.30;99.90;;;;;;5043407;28;19929;-81
2022/10/29 08:03:18;;;;;;;;;;;18.40;99.90;;;;;;5043837;28;20293;-82
2022/10/29 08:05:48;;;;;;;;;;;18.40;99.90;;;;;;5039556;28;19936;-82
2022/10/29 08:08:16;;;;;;;;;;;18.50;99.90;;;;;;5058869;28;19939;-81
2022/10/29 08:10:43;;;;;;;;;;;18.60;99.90;;;;;;5042046;28;19993;-81
2022/10/29 08:13:10;;;;;;;;;;;18.80;99.90;;;;;;5043879;28;19967;-81
2022/10/29 08:15:37;;;;;;;;;;;19.00;99.90;;;;;;5044345;28;19929;-83
2022/10/29 08:18:11;;;;;;;;;;;19.30;99.90;;;;;;5050722;28;20343;-81
2022/10/29 08:20:38;;;;;;;;;;;19.40;99.90;;;;;;5048501;28;19975;-82
2022/10/29 08:23:05;;;;;;;;;;;19.50;99.90;;;;;;5038707;28;19929;-82
2022/10/29 08:25:32;;;;;;;;;;;19.50;99.90;;;;;;5036340;28;19929;-82
2022/10/29 08:28:00;;;;;;;;;;;19.40;99.90;;;;;;5043448;28;19948;-81
2022/10/29 08:30:27;;;;;;;;;;;19.30;99.90;;;;;;5052095;28;19924;-81
2022/10/29 08:32:54;;;;;;;;;;;19.20;99.90;;;;;;5044633;28;19925;-81
2022/10/29 08:35:22;;;;;;;;;;;19.10;99.90;;;;;;5048417;28;19928;-82
2022/10/29 08:37:49;;;;;;;;;;;19.10;99.90;;;;;;5060968;28;20422;-82
2022/10/29 08:40:24;;;;;;;;;;;19.20;99.90;;;;;;5048131;28;20661;-82
2022/10/29 08:42:59;;;;;;;;;;;19.10;99.90;;;;;;5042172;28;19929;-81
2022/10/29 08:45:30;;;;;;;;;;;19.30;99.90;;;;;;5040290;28;19929;-82
2022/10/29 08:48:06;;;;;;;;;;;19.50;99.90;;;;;;5039582;28;20537;-81
2022/10/29 08:50:39;;;;;;;;;;;19.60;99.90;;;;;;5048886;28;19928;-81
2022/10/29 08:53:09;;;;;;;;;;;19.80;99.90;;;;;;5041237;28;19925;-81
2022/10/29 08:55:37;;;;;;;;;;;19.90;99.90;;;;;;5040517;28;20010;-79
2022/10/29 08:58:09;;;;;;;;;;;20.00;99.90;;;;;;5041690;28;19929;-80
2022/10/29 09:00:39;;;;;;;;;;;20.10;99.90;;;;;;5055427;28;20348;-79
2022/10/29 09:03:09;;;;;;;;;;;20.10;99.90;;;;;;5033651;28;19947;-80
2022/10/29 09:05:47;;;;;;;;;;;20.20;99.90;;;;;;5044043;28;19936;-79
2022/10/29 09:08:24;;;;;;;;;;;20.20;99.90;;;;;;5041988;28;19929;-80
2022/10/29 09:10:54;;;;;;;;;;;20.30;99.90;;;;;;5040603;28;19933;-81
2022/10/29 09:13:26;;;;;;;;;;;20.50;99.90;;;;;;5042626;28;19936;-80
2022/10/29 09:15:59;;;;;;;;;;;20.60;99.90;;;;;;5044035;28;20183;-80
2022/10/29 09:18:35;;;;;;;;;;;20.70;99.90;;;;;;5045552;28;19951;-80
2022/10/29 09:21:08;;;;;;;;;;;20.70;99.90;;;;;;5049025;28;19989;-80
2022/10/29 09:23:43;;;;;;;;;;;20.70;99.90;;;;;;5051055;28;19976;-80
2022/10/29 09:26:14;;;;;;;;;;;20.70;99.90;;;;;;5051425;28;19925;-79
2022/10/29 09:28:47;;;;;;;;;;;21.00;99.90;;;;;;5050467;28;19956;-80
2022/10/29 09:31:20;;;;;;;;;;;20.90;99.90;;;;;;5050370;28;19928;-80
2022/10/29 09:33:49;;;;;;;;;;;21.00;99.90;;;;;;5050414;28;20394;-79
2022/10/29 09:36:20;;;;;;;;;;;21.00;99.90;;;;;;5050111;28;19971;-81
2022/10/29 09:38:53;;;;;;;;;;;21.10;99.90;;;;;;5049950;28;20024;-81
2022/10/29 09:41:22;;;;;;;;;;;21.20;99.90;;;;;;5050252;28;19939;-79
2022/10/29 09:43:53;;;;;;;;;;;21.20;99.90;;;;;;5044893;28;20272;-79
2022/10/29 09:46:22;;;;;;;;;;;21.30;99.90;;;;;;5049454;28;19929;-79
2022/10/29 09:48:52;;;;;;;;;;;21.40;99.90;;;;;;5048073;28;19929;-80
2022/10/29 09:51:25;;;;;;;;;;;21.40;99.90;;;;;;5047103;28;19929;-80
2022/10/29 09:53:52;;;;;;;;;;;21.40;99.90;;;;;;5049625;28;19963;-80
2022/10/29 09:56:19;;;;;;;;;;;21.50;99.90;;;;;;5058276;28;20457;-80
2022/10/29 09:58:48;;;;;;;;;;;21.60;99.90;;;;;;5050329;28;19935;-80
2022/10/29 10:01:15;;;;;;;;;;;21.70;99.90;;;;;;5048991;28;19932;-80
2022/10/29 10:03:44;;;;;;;;;;;21.80;99.90;;;;;;5050835;28;19995;-80
2022/10/29 10:06:12;;;;;;;;;;;21.80;99.90;;;;;;5049073;28;19928;-80
2022/10/29 10:08:54;;;;;;;;;;;21.80;99.90;;;;;;5049514;28;19941;-80
2022/10/29 10:11:23;;;;;;;;;;;21.80;99.90;;;;;;5049514;28;20593;-80
2022/10/29 10:13:51;;;;;;;;;;;21.80;99.90;;;;;;5053856;28;19924;-80
2022/10/29 10:16:23;;;;;;;;;;;21.10;99.90;;;;;;5049542;28;20285;-79
2022/10/29 10:18:50;;;;;;;;;;;21.80;99.90;;;;;;5045853;28;20230;-78
2022/10/29 10:21:24;;;;;;;;;;;21.90;99.90;;;;;;5052290;28;19932;-79
2022/10/29 10:23:51;;;;;;;;;;;22.00;99.90;;;;;;5051523;28;20002;-79
2022/10/29 10:26:33;;;;;;;;;;;22.10;99.90;;;;;;5052922;28;19936;-79
2022/10/29 10:29:10;;;;;;;;;;;22.30;99.90;;;;;;5049323;28;19928;-80
2022/10/29 10:31:38;;;;;;;;;;;22.80;99.90;;;;;;5052815;28;19976;-80
2022/10/29 10:34:08;;;;;;;;;;;22.80;99.90;;;;;;5052602;28;19929;-78
2022/10/29 10:36:38;;;;;;;;;;;22.90;99.90;;;;;;5053634;28;19928;-79
2022/10/29 10:39:05;;;;;;;;;;;22.90;99.90;;;;;;5053586;28;19932;-78
2022/10/29 10:41:34;;;;;;;;;;;22.90;99.90;;;;;;5051552;28;19979;-80
2022/10/29 10:44:02;;;;;;;;;;;22.90;99.90;;;;;;5053548;28;19925;-78
2022/10/29 10:46:31;;;;;;;;;;;22.90;99.90;;;;;;5052910;28;20063;-80
2022/10/29 10:49:03;;;;;;;;;;;22.90;99.90;;;;;;5055635;28;19925;-80
2022/10/29 10:51:31;;;;;;;;;;;22.90;99.90;;;;;;5054210;28;19928;-80
2022/10/29 10:53:58;;;;;;;;;;;22.90;99.90;;;;;;5054053;28;20029;-79
2022/10/29 10:56:25;;;;;;;;;;;23.00;99.90;;;;;;5052595;28;20175;-78
2022/10/29 10:58:56;;;;;;;;;;;23.10;99.90;;;;;;5052154;28;19947;-79
2022/10/29 11:01:25;;;;;;;;;;;23.10;99.90;;;;;;5050894;28;19929;-79
2022/10/29 11:03:58;;;;;;;;;;;23.30;99.90;;;;;;5058959;28;19982;-78
2022/10/29 11:06:28;;;;;;;;;;;23.30;99.90;;;;;;5052876;28;19932;-77
2022/10/29 11:08:58;;;;;;;;;;;23.40;99.90;;;;;;5048990;28;20398;-78
2022/10/29 11:11:27;;;;;;;;;;;23.50;99.90;;;;;;5049113;28;20050;-77
2022/10/29 11:13:55;;;;;;;;;;;23.70;99.90;;;;;;5050104;28;19959;-78
2022/10/29 11:16:26;;;;;;;;;;;23.80;99.90;;;;;;5067467;28;19987;-78
2022/10/29 11:18:56;;;;;;;;;;;24.00;99.90;;;;;;5052677;28;20023;-77
2022/10/29 11:21:26;;;;;;;;;;;24.20;99.90;;;;;;5064248;28;19936;-78
2022/10/29 11:23:56;;;;;;;;;;;24.20;99.90;;;;;;5052380;28;19925;-78
2022/10/29 11:26:28;;;;;;;;;;;24.20;99.90;;;;;;5039845;28;19929;-77
2022/10/29 11:28:57;;;;;;;;;;;24.20;99.90;;;;;;5053468;28;20034;-78
2022/10/29 11:31:27;;;;;;;;;;;24.30;99.90;;;;;;5055069;28;19928;-78
2022/10/29 11:34:00;;;;;;;;;;;24.20;99.90;;;;;;5056186;28;20349;-79
2022/10/29 11:36:30;;;;;;;;;;;24.20;99.90;;;;;;5062224;28;20054;-79
2022/10/29 11:38:59;;;;;;;;;;;24.20;99.90;;;;;;5053792;28;19981;-79
2022/10/29 11:41:30;;;;;;;;;;;24.30;99.90;;;;;;5055516;28;19994;-79
2022/10/29 11:43:57;;;;;;;;;;;24.30;99.90;;;;;;5054508;28;19937;-79
2022/10/29 11:46:28;;;;;;;;;;;24.40;99.90;;;;;;5036208;28;20008;-79
2022/10/29 11:49:02;;;;;;;;;;;24.40;99.90;;;;;;5055951;28;20417;-78
2022/10/29 11:51:35;;;;;;;;;;;24.50;99.90;;;;;;5053359;28;19940;-79
2022/10/29 11:54:06;;;;;;;;;;;24.50;99.90;;;;;;5056229;28;19944;-79
2022/10/29 11:56:42;;;;;;;;;;;24.40;99.90;;;;;;5061993;28;20312;-79
2022/10/29 11:59:13;;;;;;;;;;;24.40;99.90;;;;;;5045724;28;19929;-79
2022/10/29 12:01:47;;;;;;;;;;;24.30;99.90;;;;;;5052892;28;19994;-77
2022/10/29 12:04:26;;;;;;;;;;;24.20;99.90;;;;;;5052010;28;19998;-79
2022/10/29 12:07:02;;;;;;;;;;;24.20;99.90;;;;;;5052323;28;19951;-78
2022/10/29 12:09:52;;;;;;;;;;;24.20;99.90;;;;;;5044002;28;20364;-77
2022/10/29 12:12:21;;;;;;;;;;;24.30;99.90;;;;;;5062139;28;20363;-77
2022/10/29 12:14:50;;;;;;;;;;;24.40;99.90;;;;;;5048939;28;19991;-77
2022/10/29 12:17:20;;;;;;;;;;;24.60;99.90;;;;;;5052402;28;19925;-77
2022/10/29 12:19:50;;;;;;;;;;;24.90;99.90;;;;;;5051777;28;20024;-78
2022/10/29 12:22:26;;;;;;;;;;;25.20;99.90;;;;;;5054059;28;20287;-77
2022/10/29 12:25:04;;;;;;;;;;;25.30;99.90;;;;;;5052409;28;19929;-78
2022/10/29 12:27:35;;;;;;;;;;;25.40;99.90;;;;;;5050632;28;19944;-78
2022/10/29 12:30:03;;;;;;;;;;;25.40;99.90;;;;;;5054510;28;19939;-78
2022/10/29 12:32:33;;;;;;;;;;;25.50;99.90;;;;;;5050960;28;19932;-78
2022/10/29 12:35:06;;;;;;;;;;;25.50;99.90;;;;;;5066549;28;20392;-79
2022/10/29 12:37:49;;;;;;;;;;;25.70;99.90;;;;;;5053351;28;19928;-79
2022/10/29 12:40:19;;;;;;;;;;;26.00;99.90;;;;;;5053218;28;20004;-79
2022/10/29 12:42:47;;;;;;;;;;;26.30;99.90;;;;;;5063472;28;19975;-77
2022/10/29 12:45:22;;;;;;;;;;;26.50;99.90;;;;;;5052025;28;19925;-78
2022/10/29 12:47:52;;;;;;;;;;;26.60;99.90;;;;;;5050874;28;19988;-77
2022/10/29 12:50:27;;;;;;;;;;;26.70;99.90;;;;;;5050181;28;19959;-76
2022/10/29 12:53:01;;;;;;;;;;;26.70;99.90;;;;;;5054061;28;20359;-78
2022/10/29 12:55:28;;;;;;;;;;;26.50;99.90;;;;;;5049883;28;19937;-78
2022/10/29 12:57:55;;;;;;;;;;;26.30;99.90;;;;;;5055572;28;19931;-79
2022/10/29 13:00:32;;;;;;;;;;;26.10;99.90;;;;;;5058013;28;19925;-80
2022/10/29 13:02:59;;;;;;;;;;;25.70;99.90;;;;;;5054435;28;19933;-79
2022/10/29 13:05:37;;;;;;;;;;;25.50;99.90;;;;;;5054715;28;19971;-77
2022/10/29 13:08:31;;;;;;;;;;;25.30;99.90;;;;;;5052312;28;20354;-77
2022/10/29 13:10:59;;;;;;;;;;;24.90;99.90;;;;;;5061541;28;19979;-79
2022/10/29 13:13:38;;;;;;;;;;;24.80;99.90;;;;;;5053150;28;19941;-80
2022/10/29 13:16:07;;;;;;;;;;;24.80;99.90;;;;;;5054525;28;19978;-79
2022/10/29 13:18:42;;;;;;;;;;;24.80;99.90;;;;;;5054001;28;19960;-79
2022/10/29 13:21:09;;;;;;;;;;;24.90;99.90;;;;;;5054203;28;19929;-79
2022/10/29 13:23:36;;;;;;;;;;;24.90;99.90;;;;;;5054346;28;19951;-77
2022/10/29 13:26:05;;;;;;;;;;;24.90;99.90;;;;;;5051095;28;19928;-77
2022/10/29 13:28:49;;;;;;;;;;;25.00;99.90;;;;;;5053567;28;19978;-78
2022/10/29 13:31:35;;;;;;;;;;;25.10;99.90;;;;;;5053071;28;19928;-77
2022/10/29 13:34:02;;;;;;;;;;;25.10;99.90;;;;;;5052107;28;19929;-78
2022/10/29 13:36:36;;;;;;;;;;;24.90;99.90;;;;;;5054845;28;19928;-78
2022/10/29 13:39:16;;;;;;;;;;;24.80;99.90;;;;;;5054069;28;19929;-78
2022/10/29 13:41:49;;;;;;;;;;;24.60;99.90;;;;;;5051960;28;19931;-78
2022/10/29 13:44:17;;;;;;;;;;;24.60;99.90;;;;;;5053623;28;20028;-78
2022/10/29 13:46:46;;;;;;;;;;;24.50;99.90;;;;;;5052910;28;20502;-78
2022/10/29 13:49:16;;;;;;;;;;;24.50;99.90;;;;;;5053274;28;19925;-77
2022/10/29 13:51:46;;;;;;;;;;;24.50;99.90;;;;;;5051520;28;19971;-78
2022/10/29 13:54:16;;;;;;;;;;;24.50;99.90;;;;;;5051337;28;20045;-78
2022/10/29 13:56:47;;;;;;;;;;;24.40;99.90;;;;;;5054136;28;19925;-78
2022/10/29 13:59:18;;;;;;;;;;;24.40;99.90;;;;;;5052218;28;20357;-78
2022/10/29 14:01:51;;;;;;;;;;;24.20;99.90;;;;;;5052121;28;19929;-78
2022/10/29 14:04:22;;;;;;;;;;;24.30;99.90;;;;;;5053231;28;19985;-78
2022/10/29 14:06:50;;;;;;;;;;;24.30;99.90;;;;;;5052709;28;19926;-77
2022/10/29 14:09:20;;;;;;;;;;;24.50;99.90;;;;;;5052978;28;19929;-78
2022/10/29 14:11:55;;;;;;;;;;;24.60;99.90;;;;;;5052338;28;19928;-78
2022/10/29 14:14:24;;;;;;;;;;;24.60;99.90;;;;;;5044078;28;20633;-78
2022/10/29 14:17:08;;;;;;;;;;;24.40;99.90;;;;;;5053077;28;20502;-78
2022/10/29 14:19:35;;;;;;;;;;;24.50;99.90;;;;;;5041269;28;19933;-78
2022/10/29 14:22:02;;;;;;;;;;;24.10;99.90;;;;;;5051232;28;20023;-78
2022/10/29 14:24:36;;;;;;;;;;;24.10;99.90;;;;;;5051232;28;20347;-78
2022/10/29 14:27:07;;;;;;;;;;;23.90;99.90;;;;;;5051452;28;19990;-78
2022/10/29 14:29:34;;;;;;;;;;;23.70;99.90;;;;;;5053214;28;19992;-78